Time;durP1;ratioP1;P1;durP2;ratioP2;P2;SDS_P1;SDS_P2;PMS_P1;PMS_P2;Temp;Humidity;BMP_temperature;BMP_pressure;BME280_temperature;BME280_humidity;BME280_pressure;Samples;Min_cycle;Max_cycle;Signal;HPM_P1;HPM_P2
2021/11/13 00:02:24;;;;;;;78.35;44.97;;;;;;;3.20;100.00;100761.25;5038349;28;20053;-61
2021/11/13 00:04:51;;;;;;;75.20;42.00;;;;;;;3.21;100.00;100768.16;5046293;28;20065;-63
2021/11/13 00:07:19;;;;;;;83.95;44.85;;;;;;;3.22;100.00;100767.25;5038762;28;20060;-63
2021/11/13 00:09:46;;;;;;;79.05;43.88;;;;;;;3.27;100.00;100761.94;5045872;28;20061;-62
2021/11/13 00:12:13;;;;;;;76.63;42.40;;;;;;;3.33;100.00;100750.50;5043704;28;20057;-63
2021/11/13 00:14:41;;;;;;;81.30;44.42;;;;;;;3.25;100.00;100748.13;5043557;28;20071;-63
2021/11/13 00:17:08;;;;;;;78.60;43.60;;;;;;;3.28;100.00;100743.66;5045483;28;20065;-64
2021/11/13 00:19:36;;;;;;;80.50;43.30;;;;;;;3.25;100.00;100741.19;5047528;28;20057;-64
2021/11/13 00:22:03;;;;;;;82.40;45.13;;;;;;;3.29;100.00;100737.59;5046795;28;20071;-61
2021/11/13 00:24:30;;;;;;;74.63;43.95;;;;;;;3.34;100.00;100734.03;5044442;28;20049;-62
2021/11/13 00:26:58;;;;;;;71.85;42.10;;;;;;;3.29;100.00;100732.41;5041502;28;20056;-64
2021/11/13 00:29:25;;;;;;;79.18;44.05;;;;;;;3.28;100.00;100738.47;5041756;28;20405;-63
2021/11/13 00:31:54;;;;;;;85.63;44.53;;;;;;;3.35;100.00;100738.31;5048589;28;20404;-64
2021/11/13 00:34:21;;;;;;;74.38;41.65;;;;;;;3.35;100.00;100726.16;5040459;28;20044;-63
2021/11/13 00:36:48;;;;;;;82.22;44.00;;;;;;;3.37;100.00;100732.16;5049213;28;20063;-64
2021/11/13 00:39:15;;;;;;;72.63;41.53;;;;;;;3.30;100.00;100744.50;5037154;28;20046;-62
2021/11/13 00:41:42;;;;;;;78.28;44.55;;;;;;;3.34;100.00;100729.66;5040858;28;20690;-64
2021/11/13 00:44:09;;;;;;;71.85;41.78;;;;;;;3.29;100.00;100721.13;5036332;28;20057;-62
2021/11/13 00:46:37;;;;;;;75.00;42.78;;;;;;;3.26;100.00;100716.00;5049795;28;20053;-65
2021/11/13 00:49:05;;;;;;;75.07;43.33;;;;;;;3.17;100.00;100714.50;5039766;28;20056;-63
2021/11/13 00:51:33;;;;;;;78.28;42.38;;;;;;;3.11;100.00;100713.81;5046991;28;20044;-63
2021/11/13 00:54:01;;;;;;;77.13;41.92;;;;;;;3.15;100.00;100718.91;5039346;28;20049;-62
2021/11/13 00:56:29;;;;;;;76.57;41.25;;;;;;;3.11;100.00;100709.47;5043856;28;20059;-62
2021/11/13 00:58:56;;;;;;;72.90;40.17;;;;;;;3.12;100.00;100708.56;5057363;28;20728;-60
2021/11/13 01:01:23;;;;;;;76.28;42.88;;;;;;;3.18;100.00;100705.78;5039226;28;20048;-63
2021/11/13 01:03:50;;;;;;;75.03;42.05;;;;;;;3.19;100.00;100701.44;5044857;28;20136;-63
2021/11/13 01:06:18;;;;;;;73.45;41.70;;;;;;;3.20;100.00;100706.63;5038848;28;20049;-63
2021/11/13 01:08:47;;;;;;;75.35;42.33;;;;;;;3.21;100.00;100704.88;5043010;28;20056;-61
2021/11/13 01:11:15;;;;;;;73.43;42.35;;;;;;;3.11;100.00;100719.00;5036636;28;20069;-63
2021/11/13 01:13:42;;;;;;;73.82;41.30;;;;;;;3.13;100.00;100712.03;5045851;28;20063;-62
2021/11/13 01:16:10;;;;;;;76.22;42.13;;;;;;;3.10;100.00;100717.31;5045608;28;20053;-62
2021/11/13 01:18:39;;;;;;;79.28;42.78;;;;;;;3.08;100.00;100724.31;5045186;28;20060;-63
2021/11/13 01:21:06;;;;;;;74.70;41.38;;;;;;;3.11;100.00;100721.59;5044961;28;20049;-62
2021/11/13 01:23:33;;;;;;;77.00;39.42;;;;;;;3.09;100.00;100716.44;5043603;28;20055;-62
2021/11/13 01:26:01;;;;;;;82.28;44.50;;;;;;;3.19;100.00;100711.84;5043847;28;20175;-63
2021/11/13 01:28:28;;;;;;;70.82;40.83;;;;;;;3.17;100.00;100713.66;5041884;28;20054;-62
2021/11/13 01:30:55;;;;;;;73.30;38.40;;;;;;;3.24;100.00;100730.78;5039627;28;20075;-64
2021/11/13 01:33:23;;;;;;;75.57;40.85;;;;;;;3.20;100.00;100731.78;5035665;28;20419;-64
2021/11/13 01:35:50;;;;;;;70.75;40.00;;;;;;;3.25;100.00;100716.91;5042711;28;20068;-62
2021/11/13 01:38:18;;;;;;;78.57;42.92;;;;;;;3.15;100.00;100711.09;5039610;28;20063;-64
2021/11/13 01:40:46;;;;;;;74.47;41.20;;;;;;;3.23;100.00;100697.88;5042832;28;20060;-62
2021/11/13 01:43:13;;;;;;;78.75;42.17;;;;;;;3.23;100.00;100690.91;5067574;28;20051;-63
2021/11/13 01:45:40;;;;;;;70.95;39.83;;;;;;;3.26;100.00;100687.38;5039806;28;20060;-62
2021/11/13 01:48:07;;;;;;;73.80;40.80;;;;;;;3.27;100.00;100678.69;5043151;28;20057;-63
2021/11/13 01:50:38;;;;;;;74.47;41.63;;;;;;;3.34;100.00;100669.81;5034741;28;20059;-63
2021/11/13 01:53:06;;;;;;;71.82;40.45;;;;;;;3.33;100.00;100665.47;5040654;28;20052;-63
2021/11/13 01:55:35;;;;;;;75.40;40.88;;;;;;;3.37;100.00;100674.91;5033701;28;20051;-63
2021/11/13 01:58:11;;;;;;;73.15;42.67;;;;;;;3.36;100.00;100683.63;5045401;28;20143;-63
2021/11/13 02:00:49;;;;;;;69.47;41.38;;;;;;;3.38;100.00;100670.56;5037458;28;20050;-64
2021/11/13 02:03:17;;;;;;;73.68;40.45;;;;;;;3.41;100.00;100671.34;5032533;28;20041;-63
2021/11/13 02:05:44;;;;;;;74.05;41.75;;;;;;;3.37;100.00;100680.13;5036737;28;20109;-64
2021/11/13 02:08:11;;;;;;;75.50;39.40;;;;;;;3.39;100.00;100685.31;5044441;28;20068;-62
2021/11/13 02:10:38;;;;;;;68.57;39.00;;;;;;;3.29;100.00;100679.50;5042384;28;20059;-64
2021/11/13 02:13:05;;;;;;;69.07;39.25;;;;;;;3.31;100.00;100690.72;5038097;28;20050;-61
2021/11/13 02:15:32;;;;;;;68.95;38.67;;;;;;;3.37;100.00;100700.09;5041186;28;20516;-63
2021/11/13 02:18:00;;;;;;;73.88;41.03;;;;;;;3.41;100.00;100704.31;5044563;28;20049;-63
2021/11/13 02:20:38;;;;;;;68.22;39.83;;;;;;;3.34;100.00;100692.38;5044817;28;20049;-63
2021/11/13 02:23:09;;;;;;;72.80;40.97;;;;;;;3.33;100.00;100698.47;5042429;28;20050;-63
2021/11/13 02:25:37;;;;;;;70.80;40.83;;;;;;;3.33;100.00;100694.09;5041761;28;20053;-63
2021/11/13 02:28:06;;;;;;;70.88;38.40;;;;;;;3.34;100.00;100676.78;5046778;28;20052;-63
2021/11/13 02:30:33;;;;;;;70.38;38.08;;;;;;;3.32;100.00;100666.38;5047244;28;20055;-63
2021/11/13 02:33:00;;;;;;;76.00;40.25;;;;;;;3.29;100.00;100672.56;5038156;28;20048;-63
2021/11/13 02:35:31;;;;;;;68.75;37.70;;;;;;;3.26;100.00;100677.84;5040195;28;20053;-65
2021/11/13 02:38:12;;;;;;;73.50;41.33;;;;;;;3.24;100.00;100668.34;5043585;28;20053;-64
2021/11/13 02:40:43;;;;;;;67.35;38.80;;;;;;;3.27;100.00;100663.06;5040024;28;20050;-64
2021/11/13 02:43:10;;;;;;;72.60;39.53;;;;;;;3.24;100.00;100660.53;5044075;28;20075;-63
2021/11/13 02:45:39;;;;;;;68.30;38.08;;;;;;;3.25;100.00;100686.53;5041481;28;20382;-63
2021/11/13 02:48:07;;;;;;;71.40;40.10;;;;;;;3.28;100.00;100677.78;5044512;28;20044;-62
2021/11/13 02:50:35;;;;;;;71.35;39.83;;;;;;;3.27;100.00;100661.31;5044429;28;20056;-63
2021/11/13 02:53:09;;;;;;;71.97;38.97;;;;;;;3.24;100.00;100652.75;5045487;28;20045;-62
2021/11/13 02:55:36;;;;;;;69.72;39.67;;;;;;;3.26;100.00;100658.78;5041978;28;20056;-62
2021/11/13 02:58:03;;;;;;;69.35;38.35;;;;;;;3.26;100.00;100661.38;5043322;28;20053;-64
2021/11/13 03:00:30;;;;;;;68.70;37.50;;;;;;;3.29;100.00;100676.91;5038302;28;20045;-62
2021/11/13 03:02:57;;;;;;;75.57;39.00;;;;;;;3.37;100.00;100655.84;5046158;28;20118;-63
2021/11/13 03:05:32;;;;;;;66.63;39.08;;;;;;;3.33;100.00;100656.84;5038072;28;20446;-63
2021/11/13 03:08:05;;;;;;;72.50;40.45;;;;;;;3.26;100.00;100651.81;5048694;28;20056;-65
2021/11/13 03:10:35;;;;;;;69.45;37.90;;;;;;;3.33;100.00;100660.28;5041833;28;20135;-63
2021/11/13 03:13:03;;;;;;;68.03;38.13;;;;;;;3.33;100.00;100670.69;5044550;28;20079;-63
2021/11/13 03:15:30;;;;;;;69.10;39.30;;;;;;;3.32;100.00;100676.78;5044635;28;20060;-62
2021/11/13 03:17:58;;;;;;;63.92;38.40;;;;;;;3.34;100.00;100675.03;5049185;28;20068;-63
2021/11/13 03:20:30;;;;;;;66.10;37.83;;;;;;;3.36;100.00;100654.16;5039933;28;20057;-64
2021/11/13 03:22:58;;;;;;;70.57;39.92;;;;;;;3.41;100.00;100644.47;5043028;28;20056;-64
2021/11/13 03:25:29;;;;;;;69.45;37.42;;;;;;;3.39;100.00;100635.84;5038207;28;20049;-64
2021/11/13 03:27:59;;;;;;;64.50;36.53;;;;;;;3.35;100.00;100629.88;5048164;28;20327;-64
2021/11/13 03:30:26;;;;;;;67.20;37.83;;;;;;;3.36;100.00;100625.53;5043000;28;20045;-64
2021/11/13 03:32:54;;;;;;;70.40;39.05;;;;;;;3.41;100.00;100624.50;5048057;28;20363;-63
2021/11/13 03:35:27;;;;;;;67.07;38.10;;;;;;;3.41;100.00;100618.44;5042257;28;20046;-62
2021/11/13 03:38:01;;;;;;;68.25;38.35;;;;;;;3.40;100.00;100622.78;5051589;28;20044;-63
2021/11/13 03:40:28;;;;;;;67.78;36.83;;;;;;;3.43;100.00;100625.31;5043049;28;20056;-64
2021/11/13 03:42:56;;;;;;;64.43;36.85;;;;;;;3.37;100.00;100615.06;5049073;28;20127;-63
2021/11/13 03:45:23;;;;;;;67.18;38.58;;;;;;;3.33;100.00;100608.25;5044547;28;20416;-63
2021/11/13 03:47:50;;;;;;;70.65;38.00;;;;;;;3.36;100.00;100625.53;5045205;28;20556;-63
2021/11/13 03:50:18;;;;;;;68.00;36.72;;;;;;;3.32;100.00;100632.56;5047215;28;20045;-63
2021/11/13 03:52:45;;;;;;;70.97;38.20;;;;;;;3.25;100.00;100644.91;5048191;28;20061;-64
2021/11/13 03:55:12;;;;;;;66.78;38.63;;;;;;;3.34;100.00;100630.78;5041204;28;20049;-62
2021/11/13 03:57:39;;;;;;;68.60;36.17;;;;;;;3.28;100.00;100623.13;5047777;28;20056;-63
2021/11/13 04:00:07;;;;;;;70.65;38.13;;;;;;;3.29;100.00;100611.84;5043722;28;20445;-63
2021/11/13 04:02:34;;;;;;;66.07;38.17;;;;;;;3.30;100.00;100618.75;5049389;28;20049;-63
2021/11/13 04:05:02;;;;;;;65.65;35.60;;;;;;;3.32;100.00;100618.72;5044163;28;20114;-62
2021/11/13 04:07:29;;;;;;;63.30;36.47;;;;;;;3.25;100.00;100610.25;5050053;28;20057;-63
2021/11/13 04:09:56;;;;;;;67.78;38.17;;;;;;;3.28;100.00;100586.72;5045538;28;20053;-63
2021/11/13 04:12:23;;;;;;;62.60;35.20;;;;;;;3.26;100.00;100593.72;5045127;28;20391;-63
2021/11/13 04:14:50;;;;;;;66.45;36.35;;;;;;;3.25;100.00;100600.69;5037311;28;20056;-62
2021/11/13 04:17:18;;;;;;;58.97;35.08;;;;;;;3.30;100.00;100593.59;5051228;28;20156;-62
2021/11/13 04:19:45;;;;;;;65.32;35.30;;;;;;;3.24;100.00;100606.78;5047675;28;20064;-63
2021/11/13 04:22:12;;;;;;;64.30;38.38;;;;;;;3.19;100.00;100605.19;5047867;28;20505;-63
2021/11/13 04:24:39;;;;;;;62.30;34.67;;;;;;;3.22;100.00;100598.16;5046210;28;20052;-63
2021/11/13 04:27:07;;;;;;;62.78;36.67;;;;;;;3.24;100.00;100587.69;5049193;28;20060;-62
2021/11/13 04:29:34;;;;;;;65.30;38.05;;;;;;;3.26;100.00;100575.50;5040121;28;20071;-62
2021/11/13 04:32:01;;;;;;;60.92;35.75;;;;;;;3.28;100.00;100577.16;5047650;28;20056;-62
2021/11/13 04:34:39;;;;;;;62.60;35.95;;;;;;;3.25;100.00;100590.28;5035603;28;20053;-62
2021/11/13 04:37:14;;;;;;;61.72;35.08;;;;;;;3.26;100.00;100591.13;5044285;28;20059;-62
2021/11/13 04:39:41;;;;;;;67.00;36.70;;;;;;;3.23;100.00;100599.84;5041424;28;20405;-63
2021/11/13 04:42:10;;;;;;;59.72;35.20;;;;;;;3.26;100.00;100598.94;5048931;28;20057;-62
2021/11/13 04:44:37;;;;;;;58.97;33.88;;;;;;;3.21;100.00;100596.47;5047500;28;20507;-63
2021/11/13 04:47:04;;;;;;;63.28;34.92;;;;;;;3.31;100.00;100604.84;5046892;28;20533;-62
2021/11/13 04:49:31;;;;;;;62.72;35.70;;;;;;;3.24;100.00;100617.19;5043255;28;20053;-63
2021/11/13 04:52:00;;;;;;;59.78;34.40;;;;;;;3.29;100.00;100609.25;5050214;28;20056;-63
2021/11/13 04:54:27;;;;;;;62.05;33.88;;;;;;;3.28;100.00;100616.19;5043217;28;20065;-62
2021/11/13 04:56:55;;;;;;;60.92;34.53;;;;;;;3.21;100.00;100619.03;5049372;28;20049;-62
2021/11/13 04:59:22;;;;;;;68.13;35.78;;;;;;;3.29;100.00;100632.66;5039751;28;20445;-62
2021/11/13 05:01:49;;;;;;;62.35;34.33;;;;;;;3.29;100.00;100627.47;5046736;28;20060;-62
2021/11/13 05:04:16;;;;;;;64.85;34.00;;;;;;;3.24;100.00;100629.31;5044977;28;21077;-63
2021/11/13 05:06:43;;;;;;;63.05;35.88;;;;;;;3.24;100.00;100627.59;5043779;28;20052;-63
2021/11/13 05:09:10;;;;;;;60.22;33.10;;;;;;;3.29;100.00;100636.13;5044679;28;20048;-62
2021/11/13 05:11:37;;;;;;;63.85;33.25;;;;;;;3.28;100.00;100649.16;5048182;28;20057;-63
2021/11/13 05:14:05;;;;;;;62.95;34.95;;;;;;;3.27;100.00;100655.25;5040373;28;20048;-63
2021/11/13 05:16:32;;;;;;;60.58;34.28;;;;;;;3.25;100.00;100672.69;5046355;28;20057;-64
2021/11/13 05:18:59;;;;;;;64.88;35.08;;;;;;;3.23;100.00;100664.03;5034761;28;20057;-62
2021/11/13 05:21:26;;;;;;;64.05;34.20;;;;;;;3.28;100.00;100662.16;5040530;28;20049;-63
2021/11/13 05:23:53;;;;;;;59.00;32.45;;;;;;;3.27;100.00;100653.50;5040688;28;20052;-64
2021/11/13 05:26:20;;;;;;;61.78;35.58;;;;;;;3.39;100.00;100654.91;5046628;28;20045;-62
2021/11/13 05:28:48;;;;;;;60.55;32.55;;;;;;;3.33;100.00;100659.44;5041437;28;20045;-62
2021/11/13 05:31:15;;;;;;;56.60;31.60;;;;;;;3.38;100.00;100647.13;5048101;28;20649;-62
2021/11/13 05:33:42;;;;;;;57.75;32.15;;;;;;;3.41;100.00;100647.91;5044629;28;20056;-63
2021/11/13 05:36:09;;;;;;;59.92;33.80;;;;;;;3.44;100.00;100650.44;5045096;28;20061;-63
2021/11/13 05:38:36;;;;;;;59.88;33.33;;;;;;;3.37;100.00;100651.50;5038309;28;20045;-62
2021/11/13 05:41:03;;;;;;;57.78;33.60;;;;;;;3.37;100.00;100650.66;5040005;28;20429;-62
2021/11/13 05:43:30;;;;;;;51.65;30.60;;;;;;;3.37;100.00;100643.69;5038728;28;20049;-64
2021/11/13 05:45:57;;;;;;;52.70;30.92;;;;;;;3.47;100.00;100645.16;5044970;28;20059;-62
2021/11/13 05:48:25;;;;;;;54.63;31.80;;;;;;;3.41;100.00;100650.50;5044156;28;20102;-62
2021/11/13 05:50:52;;;;;;;58.90;32.40;;;;;;;3.39;100.00;100660.13;5039172;28;20064;-63
2021/11/13 05:53:19;;;;;;;58.38;33.55;;;;;;;3.32;100.00;100655.13;5037438;28;20321;-62
2021/11/13 05:55:46;;;;;;;55.58;32.60;;;;;;;3.31;100.00;100656.88;5038113;28;20073;-65
2021/11/13 05:58:14;;;;;;;59.15;34.30;;;;;;;3.35;100.00;100649.84;5037259;28;20395;-62
2021/11/13 06:00:42;;;;;;;58.47;33.63;;;;;;;3.37;100.00;100648.88;5045176;28;20049;-62
2021/11/13 06:03:09;;;;;;;56.10;32.13;;;;;;;3.40;100.00;100642.75;5042693;28;20068;-65
2021/11/13 06:05:36;;;;;;;56.45;32.42;;;;;;;3.37;100.00;100637.63;5042726;28;20051;-63
2021/11/13 06:08:03;;;;;;;56.42;32.10;;;;;;;3.38;100.00;100645.41;5040123;28;20413;-63
2021/11/13 06:10:30;;;;;;;56.05;31.30;;;;;;;3.35;100.00;100647.25;5038772;28;20382;-64
2021/11/13 06:12:57;;;;;;;56.38;32.83;;;;;;;3.38;100.00;100636.72;5046797;28;20060;-63
2021/11/13 06:15:24;;;;;;;56.72;32.97;;;;;;;3.40;100.00;100647.97;5038450;28;20052;-63
2021/11/13 06:17:52;;;;;;;55.45;32.30;;;;;;;3.41;100.00;100647.91;5047112;28;20468;-62
2021/11/13 06:20:19;;;;;;;56.33;31.90;;;;;;;3.44;100.00;100650.44;5034719;28;20072;-63
2021/11/13 06:22:46;;;;;;;62.22;32.58;;;;;;;3.48;100.00;100652.06;5045904;28;20525;-62
2021/11/13 06:25:14;;;;;;;60.10;33.45;;;;;;;3.44;100.00;100657.38;5035346;28;20045;-63
2021/11/13 06:27:42;;;;;;;54.72;31.45;;;;;;;3.39;100.00;100660.13;5046579;28;20533;-63
2021/11/13 06:30:11;;;;;;;50.70;29.85;;;;;;;3.38;100.00;100666.22;5033162;28;20067;-62
2021/11/13 06:32:39;;;;;;;57.90;32.42;;;;;;;3.43;100.00;100666.94;5036504;28;20050;-62
2021/11/13 06:35:08;;;;;;;53.53;30.90;;;;;;;3.44;100.00;100665.19;5040389;28;20060;-62
2021/11/13 06:37:35;;;;;;;56.92;31.65;;;;;;;3.48;100.00;100672.03;5042090;28;20059;-63
2021/11/13 06:40:04;;;;;;;57.50;31.10;;;;;;;3.51;100.00;100670.19;5041827;28;20049;-62
2021/11/13 06:42:31;;;;;;;55.67;30.90;;;;;;;3.53;100.00;100683.16;5033613;28;20045;-62
2021/11/13 06:44:58;;;;;;;49.40;29.08;;;;;;;3.67;100.00;100686.19;5041385;28;20386;-62
2021/11/13 06:47:25;;;;;;;59.28;32.30;;;;;;;3.62;100.00;100680.28;5041847;28;20450;-63
2021/11/13 06:49:52;;;;;;;55.20;32.22;;;;;;;3.63;100.00;100687.19;5038888;28;20048;-62
2021/11/13 06:52:20;;;;;;;55.25;31.23;;;;;;;3.61;100.00;100694.19;5040659;28;20057;-62
2021/11/13 06:54:47;;;;;;;55.67;31.02;;;;;;;3.60;100.00;100689.00;5042348;28;20057;-62
2021/11/13 06:57:14;;;;;;;56.95;30.10;;;;;;;3.63;100.00;100681.97;5039424;28;20054;-61
2021/11/13 06:59:41;;;;;;;51.53;31.08;;;;;;;3.65;100.00;100681.91;5034438;28;20525;-63
2021/11/13 07:02:09;;;;;;;53.17;30.63;;;;;;;3.68;100.00;100679.25;5037066;28;20167;-62
2021/11/13 07:04:36;;;;;;;52.78;29.92;;;;;;;3.68;100.00;100679.25;5044385;28;20053;-62
2021/11/13 07:07:03;;;;;;;53.35;29.90;;;;;;;3.73;100.00;100682.56;5032595;28;20053;-62
2021/11/13 07:09:30;;;;;;;54.63;30.23;;;;;;;3.72;100.00;100697.31;5039644;28;20156;-64
2021/11/13 07:12:03;;;;;;;51.65;30.48;;;;;;;3.69;100.00;100699.16;5040763;28;20079;-63
2021/11/13 07:14:30;;;;;;;53.85;30.17;;;;;;;3.70;100.00;100701.75;5035358;28;20096;-61
2021/11/13 07:16:57;;;;;;;52.17;29.48;;;;;;;3.70;100.00;100701.75;5042738;28;20057;-62
2021/11/13 07:19:24;;;;;;;48.97;29.10;;;;;;;3.73;100.00;100705.97;5037988;28;20053;-63
2021/11/13 07:21:51;;;;;;;48.08;27.17;;;;;;;3.73;100.00;100701.63;5045043;28;20076;-63
2021/11/13 07:24:19;;;;;;;50.70;30.23;;;;;;;3.88;100.00;100691.69;5037175;28;20053;-63
2021/11/13 07:26:51;;;;;;;50.97;27.83;;;;;;;3.92;100.00;100703.72;5043840;28;20734;-63
2021/11/13 07:29:20;;;;;;;45.10;27.35;;;;;;;3.95;100.00;100704.44;5037603;28;20060;-63
2021/11/13 07:31:47;;;;;;;52.83;30.75;;;;;;;4.01;100.00;100699.06;5039494;28;20041;-63
2021/11/13 07:34:14;;;;;;;49.38;28.08;;;;;;;4.01;100.00;100696.47;5039173;28;20041;-63
2021/11/13 07:36:42;;;;;;;47.22;27.70;;;;;;;4.06;100.00;100691.97;5044349;28;20053;-62
2021/11/13 07:39:09;;;;;;;53.15;29.42;;;;;;;4.09;100.00;100688.38;5042198;28;20065;-63
2021/11/13 07:41:36;;;;;;;48.38;29.15;;;;;;;4.12;100.00;100690.91;5042361;28;20050;-63
2021/11/13 07:44:03;;;;;;;51.50;28.77;;;;;;;4.20;100.00;100694.13;5040842;28;20051;-63
2021/11/13 07:46:31;;;;;;;46.95;27.00;;;;;;;4.21;100.00;100698.44;5038518;28;20060;-63
2021/11/13 07:48:58;;;;;;;49.20;29.23;;;;;;;4.25;100.00;100701.81;5038115;28;20156;-62
2021/11/13 07:51:25;;;;;;;45.97;28.77;;;;;;;4.32;100.00;100698.97;5038386;28;20433;-63
2021/11/13 07:53:52;;;;;;;44.55;26.23;;;;;;;4.38;100.00;100687.47;5036300;28;20882;-62
2021/11/13 07:56:19;;;;;;;46.00;26.48;;;;;;;4.34;100.00;100685.03;5036779;28;20054;-63
2021/11/13 07:58:46;;;;;;;44.97;26.58;;;;;;;4.34;100.00;100682.41;5042521;28;20064;-63
2021/11/13 08:01:14;;;;;;;42.75;26.50;;;;;;;4.32;100.00;100672.91;5035552;28;20060;-62
2021/11/13 08:03:41;;;;;;;48.50;27.88;;;;;;;4.35;100.00;100681.50;5044589;28;20045;-62
2021/11/13 08:06:08;;;;;;;45.85;28.13;;;;;;;4.42;100.00;100683.88;5041948;28;20049;-61
2021/11/13 08:08:35;;;;;;;45.03;28.65;;;;;;;4.42;100.00;100686.50;5035817;28;20521;-62
2021/11/13 08:11:02;;;;;;;46.30;27.02;;;;;;;4.54;100.00;100685.22;5034448;28;20049;-62
2021/11/13 08:13:30;;;;;;;45.20;26.25;;;;;;;4.62;100.00;100669.31;5034823;28;20072;-63
2021/11/13 08:15:57;;;;;;;43.97;27.00;;;;;;;4.61;100.00;100667.63;5043308;28;20052;-62
2021/11/13 08:18:24;;;;;;;44.75;26.90;;;;;;;4.66;100.00;100670.94;5039062;28;20663;-62
2021/11/13 08:20:52;;;;;;;48.42;27.52;;;;;;;4.74;100.00;100682.81;5043106;28;20053;-63
2021/11/13 08:23:23;;;;;;;44.90;26.60;;;;;;;4.71;100.00;100679.44;5042438;28;20800;-62
2021/11/13 08:25:52;;;;;;;44.15;25.15;;;;;;;4.76;100.00;100683.59;5042576;28;20052;-62
2021/11/13 08:28:20;;;;;;;41.50;26.10;;;;;;;4.84;100.00;100688.56;5044644;28;20046;-62
2021/11/13 08:30:48;;;;;;;44.95;26.40;;;;;;;4.87;100.00;100688.47;5045339;28;20053;-63
2021/11/13 08:33:15;;;;;;;44.22;27.52;;;;;;;4.78;100.00;100689.63;5046039;28;20744;-62
2021/11/13 08:35:44;;;;;;;45.90;25.77;;;;;;;4.73;100.00;100678.50;5047892;28;20056;-62
2021/11/13 08:38:15;;;;;;;47.05;27.88;;;;;;;4.83;100.00;100687.72;5043920;28;20060;-61
2021/11/13 08:40:42;;;;;;;43.20;26.80;;;;;;;4.85;100.00;100692.84;5043633;28;20155;-63
2021/11/13 08:43:16;;;;;;;39.78;25.50;;;;;;;5.01;100.00;100691.44;5042150;28;20132;-63
2021/11/13 08:45:43;;;;;;;39.78;25.60;;;;;;;4.95;100.00;100689.03;5040510;28;20086;-63
2021/11/13 08:48:10;;;;;;;46.63;25.92;;;;;;;4.90;100.00;100695.31;5047044;28;20053;-63
2021/11/13 08:50:37;;;;;;;44.65;25.38;;;;;;;5.03;100.00;100697.44;5040843;28;20053;-63
2021/11/13 08:53:05;;;;;;;47.20;25.27;;;;;;;5.08;100.00;100702.50;5043054;28;20061;-63
2021/11/13 08:55:35;;;;;;;42.10;26.33;;;;;;;5.33;100.00;100699.88;5040729;28;20509;-63
2021/11/13 08:58:03;;;;;;;43.10;24.73;;;;;;;5.38;98.58;100700.56;5042362;28;20057;-63
2021/11/13 09:00:42;;;;;;;42.25;25.50;;;;;;;5.47;98.89;100700.22;5041923;28;20156;-63
2021/11/13 09:03:14;;;;;;;41.80;25.25;;;;;;;5.55;98.05;100695.59;5044636;28;20057;-63
2021/11/13 09:05:41;;;;;;;47.50;25.40;;;;;;;5.62;97.29;100693.56;5043097;28;20053;-62
2021/11/13 09:08:09;;;;;;;44.63;25.92;;;;;;;5.62;97.07;100706.63;5046447;28;20099;-63
2021/11/13 09:10:38;;;;;;;39.72;24.27;;;;;;;5.73;96.94;100698.41;5043753;28;20126;-63
2021/11/13 09:13:05;;;;;;;42.22;25.48;;;;;;;5.78;96.62;100706.94;5047455;28;20481;-63
2021/11/13 09:15:34;;;;;;;40.70;24.30;;;;;;;5.71;95.93;100702.84;5038519;28;20053;-62
2021/11/13 09:18:01;;;;;;;40.53;23.67;;;;;;;5.78;95.84;100704.31;5039494;28;20473;-63
2021/11/13 09:20:28;;;;;;;38.13;22.40;;;;;;;5.86;95.29;100717.09;5046278;28;20436;-63
2021/11/13 09:22:56;;;;;;;37.28;22.45;;;;;;;5.93;94.98;100714.19;5041919;28;20047;-63
2021/11/13 09:25:24;;;;;;;37.10;21.90;;;;;;;5.92;95.17;100720.34;5042655;28;20048;-63
2021/11/13 09:27:52;;;;;;;36.38;22.48;;;;;;;5.93;94.54;100722.03;5039317;28;20053;-63
2021/11/13 09:30:22;;;;;;;40.22;24.83;;;;;;;5.89;94.87;100728.25;5038639;28;20494;-63
2021/11/13 09:32:49;;;;;;;36.25;22.75;;;;;;;5.87;94.65;100729.25;5033002;22;20046;-66
2021/11/13 09:35:17;;;;;;;37.95;23.48;;;;;;;6.00;94.38;100730.53;5014319;28;20068;-67
2021/11/13 09:37:46;;;;;;;38.38;23.23;;;;;;;6.14;93.67;100728.22;5025479;28;20054;-68
2021/11/13 09:40:16;;;;;;;35.95;23.05;;;;;;;6.30;92.43;100725.84;5013252;28;20057;-68
2021/11/13 09:42:45;;;;;;;34.95;21.90;;;;;;;6.27;92.27;100713.75;5007284;28;20054;-68
2021/11/13 09:45:13;;;;;;;34.72;21.00;;;;;;;6.30;91.85;100723.22;4988899;28;20384;-68
2021/11/13 09:47:44;;;;;;;34.28;21.75;;;;;;;6.27;92.08;100713.75;5010222;28;20045;-68
2021/11/13 09:50:12;;;;;;;32.47;20.15;;;;;;;6.40;92.03;100721.13;5001771;28;20509;-66
2021/11/13 09:52:40;;;;;;;39.83;22.80;;;;;;;6.48;90.86;100713.78;5021365;28;20068;-66
2021/11/13 09:55:08;;;;;;;37.78;22.55;;;;;;;6.66;90.54;100710.41;5011961;28;20213;-66
2021/11/13 09:57:37;;;;;;;35.55;22.48;;;;;;;6.74;89.74;100717.97;4992435;28;20061;-69
2021/11/13 10:00:10;;;;;;;33.70;20.42;;;;;;;6.77;88.98;100715.22;5002408;28;20058;-69
2021/11/13 10:02:37;;;;;;;34.47;20.83;;;;;;;6.79;89.26;100718.63;4977086;28;20054;-69
2021/11/13 10:05:05;;;;;;;35.88;20.02;;;;;;;6.92;88.51;100716.34;5000616;28;20054;-69
2021/11/13 10:07:33;;;;;;;33.25;20.30;;;;;;;7.05;87.74;100707.91;4981115;28;20061;-67
2021/11/13 10:10:00;;;;;;;37.22;20.40;;;;;;;7.16;87.19;100693.47;5004369;28;20050;-67
2021/11/13 10:12:37;;;;;;;32.90;19.90;;;;;;;7.31;86.72;100698.91;5007331;28;20068;-68
2021/11/13 10:15:35;;;;;;;33.75;19.88;;;;;;;7.46;86.98;100697.38;5002000;28;20070;-67
2021/11/13 10:18:17;;;;;;;30.48;19.73;;;;;;;7.53;85.63;100698.81;4968823;28;20064;-67
2021/11/13 10:20:50;;;;;;;27.33;18.55;;;;;;;7.58;84.48;100704.69;4972999;28;20053;-67
2021/11/13 10:23:36;;;;;;;30.15;19.25;;;;;;;7.66;84.18;100699.13;5003397;28;20053;-68
2021/11/13 10:26:05;;;;;;;33.53;19.20;;;;;;;7.61;84.20;100688.00;5005838;28;20061;-69
2021/11/13 10:28:41;;;;;;;33.08;20.00;;;;;;;7.43;84.54;100683.56;5008182;28;20069;-69
2021/11/13 10:31:27;;;;;;;29.92;20.05;;;;;;;7.38;84.54;100682.91;5008444;28;20062;-67
2021/11/13 10:33:57;;;;;;;29.52;18.95;;;;;;;7.36;84.80;100683.00;5006674;28;20049;-69
2021/11/13 10:36:27;;;;;;;32.97;19.95;;;;;;;7.39;85.56;100695.13;4994499;28;20094;-68
2021/11/13 10:38:57;;;;;;;32.60;21.13;;;;;;;7.43;85.04;100688.78;5001926;28;20514;-68
2021/11/13 10:41:24;;;;;;;31.70;19.77;;;;;;;7.63;83.94;100677.44;4989856;28;20053;-69
2021/11/13 10:43:52;;;;;;;33.88;21.00;;;;;;;7.90;83.50;100665.66;5011988;28;20045;-66
2021/11/13 10:46:21;;;;;;;30.55;19.08;;;;;;;8.07;83.36;100662.25;4996711;28;20049;-68
2021/11/13 10:48:52;;;;;;;29.23;18.40;;;;;;;8.26;82.72;100660.44;4982168;28;20049;-68
2021/11/13 10:51:24;;;;;;;29.50;20.17;;;;;;;8.40;81.16;100659.78;5007573;28;20196;-69
2021/11/13 10:53:51;;;;;;;30.65;20.35;;;;;;;8.61;79.80;100650.84;5004246;28;20053;-68
2021/11/13 10:56:27;;;;;;;29.85;19.15;;;;;;;8.47;79.84;100647.22;4987802;28;20504;-68
2021/11/13 10:59:03;;;;;;;32.17;18.10;;;;;;;8.51;79.98;100649.63;4998588;28;20051;-68
2021/11/13 11:01:45;;;;;;;32.38;19.48;;;;;;;8.72;79.36;100657.31;5011373;28;20072;-68
2021/11/13 11:04:30;;;;;;;36.35;20.70;;;;;;;9.05;77.24;100652.09;4985884;28;20057;-67
2021/11/13 11:07:09;;;;;;;32.90;21.10;;;;;;;9.15;76.00;100640.22;5011510;28;20053;-67
2021/11/13 11:09:39;;;;;;;33.67;21.13;;;;;;;9.45;76.15;100642.97;5002900;28;20058;-69
2021/11/13 11:12:13;;;;;;;29.90;18.45;;;;;;;9.27;75.88;100642.16;5005818;28;20065;-66
2021/11/13 11:14:42;;;;;;;31.55;20.17;;;;;;;9.36;75.64;100638.19;5007094;28;20046;-68
2021/11/13 11:17:14;;;;;;;28.90;19.35;;;;;;;9.38;75.59;100639.00;5012842;28;20121;-67
2021/11/13 11:19:43;;;;;;;31.38;19.40;;;;;;;9.44;74.88;100630.75;4969795;28;20053;-67